Time;durP1;ratioP1;P1;durP2;ratioP2;P2;SDS_P1;SDS_P2;PMS_P1;PMS_P2;Temp;Humidity;BMP_temperature;BMP_pressure;BME280_temperature;BME280_humidity;BME280_pressure;Samples;Min_cycle;Max_cycle;Signal;HPM_P1;HPM_P2
2023/10/01 00:03:51;;;;;;;2.45;2.25;;;;;;;;;;10376562;28;20225;-82
2023/10/01 00:08:53;;;;;;;6.30;2.13;;;;;;;;;;10372663;28;20210;-83
2023/10/01 00:13:54;;;;;;;2.75;2.42;;;;;;;;;;10380860;28;20226;-83
2023/10/01 00:18:55;;;;;;;3.20;2.17;;;;;;;;;;10388436;28;20229;-83
2023/10/01 00:23:56;;;;;;;3.53;2.22;;;;;;;;;;10386947;28;20246;-83
2023/10/01 00:28:58;;;;;;;2.83;2.72;;;;;;;;;;10407321;28;20219;-83
2023/10/01 00:33:59;;;;;;;4.43;3.30;;;;;;;;;;10377601;28;20632;-83
2023/10/01 00:39:00;;;;;;;3.78;3.53;;;;;;;;;;10387522;28;20212;-83
2023/10/01 00:44:01;;;;;;;4.30;3.40;;;;;;;;;;10400894;28;20578;-82
2023/10/01 00:49:04;;;;;;;4.70;3.55;;;;;;;;;;10398531;28;20226;-83
2023/10/01 00:54:05;;;;;;;6.72;3.55;;;;;;;;;;10386254;28;20595;-82
2023/10/01 00:59:07;;;;;;;4.53;3.38;;;;;;;;;;10396312;28;20242;-82
2023/10/01 01:04:17;;;;;;;3.72;3.53;;;;;;;;;;10399292;28;20227;-83
2023/10/01 01:09:20;;;;;;;4.45;3.72;;;;;;;;;;10383393;28;20215;-83
2023/10/01 01:14:21;;;;;;;4.30;2.80;;;;;;;;;;10379815;28;20696;-82
2023/10/01 01:19:23;;;;;;;4.22;3.08;;;;;;;;;;10391530;28;20246;-82
2023/10/01 01:24:24;;;;;;;5.90;3.53;;;;;;;;;;10385248;28;20226;-81
2023/10/01 01:29:33;;;;;;;3.08;2.85;;;;;;;;;;10394908;28;20795;-83
2023/10/01 01:34:34;;;;;;;4.93;3.47;;;;;;;;;;10380532;28;20227;-83
2023/10/01 01:39:54;;;;;;;5.47;3.35;;;;;;;;;;10407583;28;20230;-83
2023/10/01 01:50:19;;;;;;;3.58;3.00;;;;;;;;;;10401412;28;20219;-83
2023/10/01 01:55:24;;;;;;;2.88;2.58;;;;;;;;;;10408487;28;20323;-82
2023/10/01 02:00:26;;;;;;;3.33;2.95;;;;;;;;;;10375039;28;20230;-82
2023/10/01 02:05:28;;;;;;;3.50;2.97;;;;;;;;;;10375714;28;20795;-83
2023/10/01 02:10:31;;;;;;;2.47;2.47;;;;;;;;;;10395298;28;20212;-84
2023/10/01 02:15:35;;;;;;;3.03;2.72;;;;;;;;;;10393294;28;20215;-82
2023/10/01 02:20:37;;;;;;;2.70;2.60;;;;;;;;;;10380286;28;20302;-84
2023/10/01 02:25:39;;;;;;;2.75;2.55;;;;;;;;;;10375127;28;20220;-83
2023/10/01 02:30:44;;;;;;;3.38;3.17;;;;;;;;;;10352902;28;20214;-82
2023/10/01 02:35:48;;;;;;;2.47;2.38;;;;;;;;;;10354440;28;20797;-83
2023/10/01 02:40:50;;;;;;;2.70;2.50;;;;;;;;;;10322337;28;20220;-84
2023/10/01 02:45:51;;;;;;;3.13;3.03;;;;;;;;;;10363316;28;20236;-82
2023/10/01 02:50:52;;;;;;;3.88;3.05;;;;;;;;;;10331112;28;20823;-83
2023/10/01 02:55:55;;;;;;;2.90;2.70;;;;;;;;;;10333333;28;21064;-82
2023/10/01 03:00:57;;;;;;;3.20;3.00;;;;;;;;;;10335032;28;20222;-83
2023/10/01 03:06:08;;;;;;;8.30;3.60;;;;;;;;;;10334469;28;20248;-82
2023/10/01 03:11:11;;;;;;;6.95;3.97;;;;;;;;;;10330322;28;20219;-82
2023/10/01 03:22:15;;;;;;;3.85;3.55;;;;;;;;;;10335726;28;20303;-82
2023/10/01 03:27:12;;;;;;;5.60;4.65;;;;;;;;;;10353231;28;20310;-83
2023/10/01 03:32:46;;;;;;;4.72;4.25;;;;;;;;;;10345020;28;20307;-82
2023/10/01 03:37:43;;;;;;;5.20;4.68;;;;;;;;;;10346039;28;20250;-82
2023/10/01 03:42:51;;;;;;;5.05;4.40;;;;;;;;;;10354202;28;20268;-83
2023/10/01 03:47:57;;;;;;;3.60;3.30;;;;;;;;;;10351913;28;20204;-82
2023/10/01 03:52:59;;;;;;;4.50;4.10;;;;;;;;;;10349476;28;21810;-82
2023/10/01 04:03:04;;;;;;;3.72;3.42;;;;;;;;;;10357991;28;20870;-81
2023/10/01 04:08:11;;;;;;;4.28;3.95;;;;;;;;;;10327053;28;20227;-81
2023/10/01 04:13:12;;;;;;;3.58;3.47;;;;;;;;;;10322176;28;20315;-82
2023/10/01 04:23:29;;;;;;;4.53;4.07;;;;;;;;;;10348827;28;20216;-82
2023/10/01 04:28:44;;;;;;;4.97;4.47;;;;;;;;;;10383100;28;20227;-82
2023/10/01 04:33:47;;;;;;;4.53;3.95;;;;;;;;;;10381775;28;20223;-82
2023/10/01 04:39:00;;;;;;;3.80;3.60;;;;;;;;;;10368184;28;20203;-83
2023/10/01 04:44:07;;;;;;;4.68;4.47;;;;;;;;;;10393641;28;20220;-82
2023/10/01 04:49:26;;;;;;;4.97;4.60;;;;;;;;;;10379533;28;20219;-81
2023/10/01 04:54:28;;;;;;;4.82;4.63;;;;;;;;;;10405457;28;20219;-82
2023/10/01 04:59:29;;;;;;;5.50;4.05;;;;;;;;;;10392433;28;20622;-82
2023/10/01 05:04:30;;;;;;;4.10;3.92;;;;;;;;;;10399478;28;20222;-82
2023/10/01 05:09:36;;;;;;;11.65;4.15;;;;;;;;;;10403307;28;20295;-83
2023/10/01 05:14:56;;;;;;;4.05;3.75;;;;;;;;;;10395231;28;20220;-81
2023/10/01 05:19:58;;;;;;;3.53;3.28;;;;;;;;;;10391297;28;20292;-81
2023/10/01 05:24:59;;;;;;;3.92;3.67;;;;;;;;;;10409148;28;20230;-81
2023/10/01 05:30:00;;;;;;;3.65;3.45;;;;;;;;;;10391348;28;20219;-82
2023/10/01 05:35:14;;;;;;;4.65;4.07;;;;;;;;;;10414089;28;20898;-83
2023/10/01 05:40:16;;;;;;;4.28;4.00;;;;;;;;;;10372663;28;20211;-80
2023/10/01 05:45:36;;;;;;;3.72;3.40;;;;;;;;;;10389639;28;20291;-85
2023/10/01 05:50:38;;;;;;;5.03;4.03;;;;;;;;;;10363033;28;20212;-82
2023/10/01 05:55:41;;;;;;;8.20;3.75;;;;;;;;;;10363987;28;20306;-80
2023/10/01 06:00:45;;;;;;;4.47;3.80;;;;;;;;;;10384876;28;20219;-81
2023/10/01 06:05:58;;;;;;;3.88;3.65;;;;;;;;;;10394636;28;20235;-80
2023/10/01 06:11:09;;;;;;;4.75;4.32;;;;;;;;;;10389810;28;20243;-82
2023/10/01 06:16:16;;;;;;;3.83;3.63;;;;;;;;;;10383025;28;20239;-80
2023/10/01 06:21:23;;;;;;;3.28;3.08;;;;;;;;;;10371818;28;20307;-82
2023/10/01 06:26:36;;;;;;;3.65;3.45;;;;;;;;;;10402627;28;20314;-81
2023/10/01 06:37:14;;;;;;;4.68;3.60;;;;;;;;;;10291132;28;20219;-82
2023/10/01 06:42:19;;;;;;;3.60;3.25;;;;;;;;;;10378485;28;20215;-82
2023/10/01 06:47:26;;;;;;;5.40;2.97;;;;;;;;;;10381066;28;20226;-82
2023/10/01 06:52:28;;;;;;;7.82;3.28;;;;;;;;;;10386703;28;20215;-83
2023/10/01 06:57:33;;;;;;;2.83;2.72;;;;;;;;;;10404008;28;20226;-82
2023/10/01 07:02:34;;;;;;;4.70;2.67;;;;;;;;;;10427859;28;20211;-81
2023/10/01 07:07:35;;;;;;;2.30;2.30;;;;;;;;;;10419936;28;20326;-81
2023/10/01 07:12:38;;;;;;;3.30;3.05;;;;;;;;;;10398556;28;20911;-83
2023/10/01 07:17:39;;;;;;;6.00;3.20;;;;;;;;;;10391858;28;20219;-83
2023/10/01 07:22:44;;;;;;;5.30;2.30;;;;;;;;;;10397739;28;20215;-84
2023/10/01 07:27:45;;;;;;;2.15;2.05;;;;;;;;;;10378977;28;20231;-83
2023/10/01 07:32:46;;;;;;;3.00;2.00;;;;;;;;;;10377691;28;20218;-83
2023/10/01 07:37:48;;;;;;;3.67;1.98;;;;;;;;;;10406173;28;20219;-83
2023/10/01 07:42:54;;;;;;;2.03;1.92;;;;;;;;;;10388823;28;20239;-83
2023/10/01 07:47:55;;;;;;;1.63;1.52;;;;;;;;;;10389929;28;20225;-83
2023/10/01 07:53:03;;;;;;;2.33;1.30;;;;;;;;;;10379366;28;20227;-82
2023/10/01 07:58:23;;;;;;;3.17;1.65;;;;;;;;;;10382143;28;20249;-83
2023/10/01 08:08:37;;;;;;;2.08;1.85;;;;;;;;;;10409922;28;20277;-81
2023/10/01 08:13:39;;;;;;;2.90;1.88;;;;;;;;;;10365600;28;20218;-83
2023/10/01 08:18:46;;;;;;;2.13;1.92;;;;;;;;;;10396742;28;20207;-82
2023/10/01 08:23:54;;;;;;;1.75;1.65;;;;;;;;;;10385828;28;20215;-83
2023/10/01 08:28:57;;;;;;;2.92;1.90;;;;;;;;;;10397417;28;20238;-82
2023/10/01 08:34:22;;;;;;;2.22;1.60;;;;;;;;;;10391899;28;20219;-82
2023/10/01 08:39:20;;;;;;;4.43;1.88;;;;;;;;;;10412649;28;20283;-81
2023/10/01 08:44:33;;;;;;;2.60;2.40;;;;;;;;;;10396557;28;20886;-82
2023/10/01 08:49:41;;;;;;;2.25;1.80;;;;;;;;;;10387550;28;20217;-81
2023/10/01 08:54:48;;;;;;;3.88;2.30;;;;;;;;;;10368062;28;20244;-82
2023/10/01 08:59:53;;;;;;;2.67;1.83;;;;;;;;;;10393033;28;20230;-82
2023/10/01 09:04:56;;;;;;;3.70;1.33;;;;;;;;;;10383001;28;20716;-83
2023/10/01 09:10:05;;;;;;;3.47;1.60;;;;;;;;;;10378028;28;20344;-82
2023/10/01 09:15:06;;;;;;;1.65;1.55;;;;;;;;;;10391968;28;20660;-82
2023/10/01 09:20:17;;;;;;;1.67;1.58;;;;;;;;;;10408889;28;20261;-83
2023/10/01 09:25:19;;;;;;;3.15;1.80;;;;;;;;;;10387161;28;20889;-82
2023/10/01 09:30:26;;;;;;;2.42;1.73;;;;;;;;;;10405729;28;20211;-83
2023/10/01 09:35:40;;;;;;;3.38;1.92;;;;;;;;;;10420986;28;20798;-85
2023/10/01 09:40:42;;;;;;;1.65;1.55;;;;;;;;;;10398669;28;20222;-83
2023/10/01 09:45:46;;;;;;;2.28;1.38;;;;;;;;;;10397040;28;20218;-82
2023/10/01 09:50:48;;;;;;;1.40;1.40;;;;;;;;;;10409267;28;20222;-82
2023/10/01 09:55:55;;;;;;;1.63;1.52;;;;;;;;;;10393927;28;20294;-82
2023/10/01 10:01:08;;;;;;;1.50;1.40;;;;;;;;;;10381787;28;20569;-82
2023/10/01 10:06:10;;;;;;;2.47;1.17;;;;;;;;;;10359586;28;20215;-82
2023/10/01 10:11:24;;;;;;;4.57;1.85;;;;;;;;;;10375532;28;20219;-81
2023/10/01 10:16:32;;;;;;;1.80;1.33;;;;;;;;;;10407086;28;20655;-83
2023/10/01 10:27:06;;;;;;;2.03;1.58;;;;;;;;;;10411887;28;20352;-82
2023/10/01 10:32:11;;;;;;;1.60;1.50;;;;;;;;;;10365008;28;20249;-82
2023/10/01 10:37:31;;;;;;;2.83;1.20;;;;;;;;;;10401055;28;20276;-80
2023/10/01 10:42:33;;;;;;;1.70;1.30;;;;;;;;;;10407836;28;20207;-81
2023/10/01 10:47:58;;;;;;;1.30;1.20;;;;;;;;;;10411074;28;20265;-81
2023/10/01 10:52:59;;;;;;;1.10;1.10;;;;;;;;;;10377449;28;20294;-81
2023/10/01 10:58:12;;;;;;;3.30;0.88;;;;;;;;;;10393535;28;20214;-81
2023/10/01 11:03:13;;;;;;;2.20;1.13;;;;;;;;;;10368937;28;20628;-81
2023/10/01 11:08:25;;;;;;;1.63;0.80;;;;;;;;;;10370417;28;20305;-80
2023/10/01 11:13:45;;;;;;;0.95;0.70;;;;;;;;;;10377331;28;21275;-81
2023/10/01 11:18:47;;;;;;;0.88;0.88;;;;;;;;;;10384457;28;20312;-81
2023/10/01 11:23:53;;;;;;;0.70;0.70;;;;;;;;;;10371174;28;20220;-80
2023/10/01 11:29:00;;;;;;;1.27;0.88;;;;;;;;;;10397824;28;20314;-81
2023/10/01 11:34:43;;;;;;;0.88;0.88;;;;;;;;;;10407477;28;20219;-81
2023/10/01 11:39:38;;;;;;;0.95;0.90;;;;;;;;;;10385869;28;20246;-80
2023/10/01 11:44:43;;;;;;;1.05;0.60;;;;;;;;;;10389859;28;20306;-80
2023/10/01 11:49:45;;;;;;;1.75;1.00;;;;;;;;;;10371448;28;20214;-81
2023/10/01 11:54:55;;;;;;;1.77;1.52;;;;;;;;;;10385939;28;20225;-82
2023/10/01 11:59:58;;;;;;;1.85;1.13;;;;;;;;;;10393114;28;20290;-82
2023/10/01 12:05:02;;;;;;;3.75;1.80;;;;;;;;;;10422456;28;20210;-82
2023/10/01 12:10:07;;;;;;;1.63;1.25;;;;;;;;;;10381769;28;20219;-82
2023/10/01 12:20:31;;;;;;;1.40;1.10;;;;;;;;;;10391237;28;20215;-82
2023/10/01 12:25:50;;;;;;;3.15;1.95;;;;;;;;;;10376469;28;20254;-83
2023/10/01 12:30:57;;;;;;;2.13;1.75;;;;;;;;;;10386060;28;20214;-82
2023/10/01 12:35:58;;;;;;;1.85;1.20;;;;;;;;;;10388711;28;20627;-82
2023/10/01 12:41:01;;;;;;;5.80;1.38;;;;;;;;;;10387814;28;20199;-81
2023/10/01 12:46:03;;;;;;;2.75;1.48;;;;;;;;;;10398506;28;20584;-80
2023/10/01 12:51:08;;;;;;;4.45;1.42;;;;;;;;;;10395108;28;20644;-81
2023/10/01 12:56:10;;;;;;;6.05;1.58;;;;;;;;;;10375666;28;20220;-81
2023/10/01 13:01:23;;;;;;;2.97;1.73;;;;;;;;;;10395006;28;20739;-80
2023/10/01 13:06:25;;;;;;;3.67;1.75;;;;;;;;;;10390671;28;20223;-81
2023/10/01 13:11:50;;;;;;;2.13;1.90;;;;;;;;;;10396073;28;20314;-81
2023/10/01 13:16:52;;;;;;;7.13;2.00;;;;;;;;;;10410201;28;20283;-83
2023/10/01 13:21:53;;;;;;;2.47;1.58;;;;;;;;;;10378914;28;20262;-81
2023/10/01 13:27:10;;;;;;;2.50;1.38;;;;;;;;;;10386210;28;20230;-81
2023/10/01 13:32:26;;;;;;;6.20;1.55;;;;;;;;;;10399554;28;20272;-80
2023/10/01 14:09:46;;;;;;;3.55;1.35;;;;;;;;;;10391557;28;20760;-82
2023/10/01 14:14:43;;;;;;;1.88;1.23;;;;;;;;;;10440711;28;20226;-83
2023/10/01 14:19:52;;;;;;;4.40;1.55;;;;;;;;;;10434454;28;20204;-83
2023/10/01 14:24:53;;;;;;;2.60;1.15;;;;;;;;;;10435334;28;20808;-82
2023/10/01 14:30:01;;;;;;;3.63;1.25;;;;;;;;;;10412595;28;20221;-83
2023/10/01 14:35:37;;;;;;;2.30;1.52;;;;;;;;;;10418686;28;20227;-83
2023/10/01 14:40:25;;;;;;;5.32;1.50;;;;;;;;;;10399446;28;20669;-82
2023/10/01 14:45:42;;;;;;;3.63;1.50;;;;;;;;;;10386949;28;20223;-82
2023/10/01 14:50:43;;;;;;;1.85;1.30;;;;;;;;;;10407955;28;20792;-82
2023/10/01 14:55:46;;;;;;;3.13;2.00;;;;;;;;;;10392490;28;20280;-81
2023/10/01 15:00:54;;;;;;;3.85;1.40;;;;;;;;;;10385235;28;20210;-82
2023/10/01 15:05:55;;;;;;;4.65;1.35;;;;;;;;;;10407766;28;20781;-82
2023/10/01 15:10:57;;;;;;;2.17;1.42;;;;;;;;;;10385541;28;20210;-81
2023/10/01 15:16:02;;;;;;;2.50;1.42;;;;;;;;;;10374316;28;20802;-81
2023/10/01 15:21:10;;;;;;;1.77;1.10;;;;;;;;;;10381588;28;20203;-80
2023/10/01 15:26:18;;;;;;;1.77;1.20;;;;;;;;;;10378254;28;20227;-82
2023/10/01 15:31:33;;;;;;;1.83;1.20;;;;;;;;;;10377811;28;20697;-83
2023/10/01 15:36:41;;;;;;;1.23;1.13;;;;;;;;;;10396535;28;20210;-82
2023/10/01 15:41:45;;;;;;;1.33;1.23;;;;;;;;;;10373563;28;20234;-81
2023/10/01 15:46:46;;;;;;;1.70;1.60;;;;;;;;;;10380889;28;20211;-83
2023/10/01 15:51:47;;;;;;;2.05;1.60;;;;;;;;;;10386611;28;20215;-81
2023/10/01 15:56:52;;;;;;;2.97;1.58;;;;;;;;;;10367668;28;20290;-82
2023/10/01 16:01:54;;;;;;;1.58;1.08;;;;;;;;;;10371569;28;20350;-79
2023/10/01 16:07:01;;;;;;;1.45;1.10;;;;;;;;;;10385456;28;20589;-80
2023/10/01 16:12:06;;;;;;;1.48;0.98;;;;;;;;;;10405832;28;20231;-83
2023/10/01 16:17:19;;;;;;;2.20;1.52;;;;;;;;;;10389033;28;20215;-82
2023/10/01 16:22:21;;;;;;;2.70;1.38;;;;;;;;;;10386075;28;20222;-82
2023/10/01 16:27:26;;;;;;;3.45;1.67;;;;;;;;;;10417863;28;20250;-83
2023/10/01 16:32:27;;;;;;;3.55;2.58;;;;;;;;;;10371065;28;20212;-82
2023/10/01 16:37:29;;;;;;;4.28;2.92;;;;;;;;;;10407879;28;20211;-81
2023/10/01 16:42:30;;;;;;;6.03;1.67;;;;;;;;;;10408592;28;20211;-80
2023/10/01 16:47:30;;;;;;;2.05;1.90;;;;;;;;;;10391011;28;20757;-80
2023/10/01 16:52:38;;;;;;;1.40;1.35;;;;;;;;;;10384674;28;20234;-80
2023/10/01 16:57:39;;;;;;;6.18;3.25;;;;;;;;;;10387605;28;20214;-81
2023/10/01 17:02:40;;;;;;;3.85;2.80;;;;;;;;;;10395954;28;20216;-80
2023/10/01 17:07:41;;;;;;;3.10;2.90;;;;;;;;;;10368139;28;20241;-80
2023/10/01 17:12:44;;;;;;;4.22;3.00;;;;;;;;;;10395664;28;20589;-81
2023/10/01 17:17:46;;;;;;;3.47;1.83;;;;;;;;;;10410591;28;20212;-83
2023/10/01 17:22:47;;;;;;;3.17;2.20;;;;;;;;;;10385738;28;20209;-84
2023/10/01 17:27:53;;;;;;;2.88;1.60;;;;;;;;;;10389834;28;20218;-83
2023/10/01 17:33:05;;;;;;;1.65;1.55;;;;;;;;;;10412928;28;20215;-85
2023/10/01 17:38:09;;;;;;;4.43;2.03;;;;;;;;;;10400018;28;20220;-84
2023/10/01 17:43:11;;;;;;;2.15;1.40;;;;;;;;;;10389456;28;20218;-81
2023/10/01 17:48:17;;;;;;;2.97;1.92;;;;;;;;;;10401568;28;20697;-81
2023/10/01 17:53:20;;;;;;;4.20;2.88;;;;;;;;;;10399882;28;20592;-83
2023/10/01 17:58:21;;;;;;;2.88;2.67;;;;;;;;;;10391203;28;20229;-83
2023/10/01 18:03:30;;;;;;;2.78;2.50;;;;;;;;;;10392084;28;20874;-83
2023/10/01 18:08:36;;;;;;;2.28;2.00;;;;;;;;;;10386593;28;20293;-83
2023/10/01 18:13:38;;;;;;;2.38;2.20;;;;;;;;;;10383081;28;20738;-83
2023/10/01 18:18:39;;;;;;;2.53;2.33;;;;;;;;;;10379154;28;20262;-82
2023/10/01 18:23:40;;;;;;;4.03;3.28;;;;;;;;;;10409006;28;20784;-84
2023/10/01 18:28:42;;;;;;;4.00;3.70;;;;;;;;;;10394948;28;20230;-84
2023/10/01 18:33:45;;;;;;;5.93;3.00;;;;;;;;;;10406643;28;20307;-83
2023/10/01 18:38:48;;;;;;;3.92;3.58;;;;;;;;;;10406114;28;20208;-83
2023/10/01 18:43:49;;;;;;;4.60;3.42;;;;;;;;;;10392484;28;20219;-82
2023/10/01 18:48:51;;;;;;;4.00;2.97;;;;;;;;;;10381412;28;20212;-82
2023/10/01 18:53:52;;;;;;;2.75;2.55;;;;;;;;;;10381254;28;20286;-85
2023/10/01 18:58:53;;;;;;;3.28;2.47;;;;;;;;;;10391685;28;20214;-84
2023/10/01 19:03:54;;;;;;;5.53;3.05;;;;;;;;;;10399063;28;20229;-86
2023/10/01 19:08:59;;;;;;;10.68;5.03;;;;;;;;;;10387852;28;20419;-83
2023/10/01 19:14:01;;;;;;;3.65;2.70;;;;;;;;;;10399550;28;20225;-83
2023/10/01 19:19:03;;;;;;;3.13;2.92;;;;;;;;;;10382727;28;20318;-87
2023/10/01 19:24:04;;;;;;;4.75;2.70;;;;;;;;;;10367660;28;20701;-83
2023/10/01 19:29:05;;;;;;;5.25;4.75;;;;;;;;;;10389170;28;20690;-83
2023/10/01 19:34:10;;;;;;;7.88;4.57;;;;;;;;;;10370753;28;20707;-82
2023/10/01 19:39:22;;;;;;;3.80;3.30;;;;;;;;;;10375405;28;20209;-81
2023/10/01 19:44:27;;;;;;;6.38;3.10;;;;;;;;;;10403705;28;20242;-81
2023/10/01 19:49:29;;;;;;;3.08;2.40;;;;;;;;;;10396259;28;20207;-83
2023/10/01 19:54:30;;;;;;;2.78;2.55;;;;;;;;;;10395501;28;20218;-82
2023/10/01 19:59:37;;;;;;;4.07;2.88;;;;;;;;;;10391144;28;20199;-81
2023/10/01 20:04:43;;;;;;;3.88;2.97;;;;;;;;;;10403505;28;20206;-82
2023/10/01 20:09:46;;;;;;;4.53;2.70;;;;;;;;;;10382174;28;20215;-81
2023/10/01 20:14:50;;;;;;;5.82;2.40;;;;;;;;;;10388213;28;20283;-81
2023/10/01 20:19:51;;;;;;;4.28;2.88;;;;;;;;;;10420271;28;20216;-81
2023/10/01 20:24:55;;;;;;;4.82;2.00;;;;;;;;;;10383274;28;20326;-83
2023/10/01 20:29:56;;;;;;;7.40;2.72;;;;;;;;;;10397381;28;20229;-82
2023/10/01 20:34:58;;;;;;;2.60;2.40;;;;;;;;;;10424050;28;20314;-82
2023/10/01 20:40:08;;;;;;;1.80;1.70;;;;;;;;;;10413097;28;20318;-81
2023/10/01 20:45:23;;;;;;;1.90;1.77;;;;;;;;;;10398035;28;20223;-81
2023/10/01 20:50:31;;;;;;;2.20;1.65;;;;;;;;;;10412987;28;20219;-83
2023/10/01 20:55:32;;;;;;;2.22;1.83;;;;;;;;;;10441673;28;20230;-83
2023/10/01 21:00:41;;;;;;;1.85;1.17;;;;;;;;;;10410229;28;20235;-84
2023/10/01 21:05:43;;;;;;;2.22;1.83;;;;;;;;;;10426661;28;20230;-84
2023/10/01 21:10:44;;;;;;;3.55;1.90;;;;;;;;;;10413848;28;20233;-81
2023/10/01 21:15:53;;;;;;;2.20;1.67;;;;;;;;;;10405147;28;20214;-82
2023/10/01 21:20:58;;;;;;;2.45;1.85;;;;;;;;;;10403815;28;20211;-85
2023/10/01 21:25:59;;;;;;;2.40;1.42;;;;;;;;;;10413439;28;20231;-82
2023/10/01 21:31:00;;;;;;;2.92;2.00;;;;;;;;;;10410158;28;20215;-85
2023/10/01 21:36:02;;;;;;;2.05;1.73;;;;;;;;;;10397922;28;20230;-81
2023/10/01 21:41:11;;;;;;;7.85;2.17;;;;;;;;;;10416812;28;20219;-82
2023/10/01 21:46:25;;;;;;;7.60;1.75;;;;;;;;;;10413531;28;20222;-81
2023/10/01 21:51:28;;;;;;;3.38;2.00;;;;;;;;;;10408825;28;20221;-83
2023/10/01 21:56:29;;;;;;;3.25;2.47;;;;;;;;;;10433393;28;20539;-84
2023/10/01 22:01:39;;;;;;;3.05;1.83;;;;;;;;;;10414348;28;20218;-82
2023/10/01 22:06:49;;;;;;;1.85;1.73;;;;;;;;;;10387158;28;20327;-82
2023/10/01 22:11:54;;;;;;;4.05;2.30;;;;;;;;;;10417041;28;20207;-81
2023/10/01 22:17:00;;;;;;;2.72;1.95;;;;;;;;;;10402337;28;20686;-83
2023/10/01 22:22:01;;;;;;;3.97;1.95;;;;;;;;;;10417014;28;20210;-81
2023/10/01 22:27:03;;;;;;;3.50;1.92;;;;;;;;;;10391255;28;20232;-82
2023/10/01 22:32:05;;;;;;;4.30;2.38;;;;;;;;;;10432586;28;20245;-88
2023/10/01 22:37:09;;;;;;;4.38;2.03;;;;;;;;;;10448611;28;20223;-83
2023/10/01 22:42:30;;;;;;;4.78;2.15;;;;;;;;;;10423196;28;20846;-82
2023/10/01 22:47:32;;;;;;;2.65;2.05;;;;;;;;;;10449985;28;20230;-83
2023/10/01 22:52:34;;;;;;;2.13;1.95;;;;;;;;;;10442123;28;20269;-82
2023/10/01 22:57:40;;;;;;;8.07;2.53;;;;;;;;;;10426734;28;20257;-80
2023/10/01 23:02:47;;;;;;;4.50;2.53;;;;;;;;;;10417983;28;20204;-84
2023/10/01 23:07:48;;;;;;;5.35;2.40;;;;;;;;;;10406765;28;20211;-81
2023/10/01 23:12:50;;;;;;;3.58;2.05;;;;;;;;;;10430639;28;20215;-86
2023/10/01 23:17:59;;;;;;;7.30;2.40;;;;;;;;;;10418987;28;20219;-82
2023/10/01 23:23:00;;;;;;;3.35;2.42;;;;;;;;;;10387933;28;20215;-84
2023/10/01 23:28:01;;;;;;;2.25;2.10;;;;;;;;;;10421272;28;20223;-82
2023/10/01 23:33:09;;;;;;;5.20;2.72;;;;;;;;;;10402878;28;20758;-82
2023/10/01 23:38:26;;;;;;;5.45;2.47;;;;;;;;;;10387057;28;21213;-81
2023/10/01 23:48:51;;;;;;;2.53;2.33;;;;;;;;;;10420936;28;20233;-82
2023/10/01 23:53:53;;;;;;;3.90;2.30;;;;;;;;;;10370723;28;20252;-81
2023/10/01 23:58:55;;;;;;;3.72;2.10;;;;;;;;;;10421514;28;20298;-83
